Verdilla, Pennsylvania
Current Conditions -  °F | °C
As of 1:38 AM on Monday 26 Jan 2015 (Local Time) from KSEG Reporting Station
Light Snow Light Snow  
Wind Chill: 11°   Ceiling: 3400
Heat Index: 22°   Visibility: 2mi
Dew Point: 18°   Wind: 10mph
Humidity: 85%   Direction: 30°NNE
Pressure: 29.95"   Gusts: NA
Location:  40.8385°N, 76.8972°W
Report Text: KSEG 260638Z AUTO 03009KT 2SM -SN BR SCT020 OVC034 M06/M08 A2995 RMK AO2 P0001 T10561078
Loading
Personal Weather Stations






























Interactive Weather Map New forecast layout! Learn more

10-Day Weather Forecast

Advertisements
Track Severe Weather on mobile